sensor_id;sensor_type;location;lat;lon;timestamp;P1;durP1;ratioP1;P2;durP2;ratioP2
7076;SDS011;3579;48.956;9.154;2023-03-02T00:00:54;3.00;;;2.70;;
7076;SDS011;3579;48.956;9.154;2023-03-02T00:03:25;3.37;;;2.60;;
7076;SDS011;3579;48.956;9.154;2023-03-02T00:05:52;7.63;;;2.90;;
7076;SDS011;3579;48.956;9.154;2023-03-02T00:08:20;3.60;;;3.00;;
7076;SDS011;3579;48.956;9.154;2023-03-02T00:10:46;3.60;;;2.73;;
7076;SDS011;3579;48.956;9.154;2023-03-02T00:13:13;3.17;;;2.73;;
7076;SDS011;3579;48.956;9.154;2023-03-02T00:15:39;2.80;;;2.50;;
7076;SDS011;3579;48.956;9.154;2023-03-02T00:18:05;3.50;;;2.80;;
7076;SDS011;3579;48.956;9.154;2023-03-02T00:20:31;3.30;;;2.70;;
7076;SDS011;3579;48.956;9.154;2023-03-02T00:22:59;3.17;;;2.60;;
7076;SDS011;3579;48.956;9.154;2023-03-02T00:25:24;2.80;;;2.57;;
7076;SDS011;3579;48.956;9.154;2023-03-02T00:27:51;3.07;;;2.50;;
7076;SDS011;3579;48.956;9.154;2023-03-02T00:30:17;3.17;;;2.67;;
7076;SDS011;3579;48.956;9.154;2023-03-02T00:32:43;2.80;;;2.50;;
7076;SDS011;3579;48.956;9.154;2023-03-02T00:35:10;2.80;;;2.40;;
7076;SDS011;3579;48.956;9.154;2023-03-02T00:37:36;3.07;;;2.67;;
7076;SDS011;3579;48.956;9.154;2023-03-02T00:40:03;3.23;;;2.80;;
7076;SDS011;3579;48.956;9.154;2023-03-02T00:42:31;3.40;;;2.63;;
7076;SDS011;3579;48.956;9.154;2023-03-02T00:44:58;3.27;;;2.67;;
7076;SDS011;3579;48.956;9.154;2023-03-02T00:47:26;3.80;;;2.53;;
7076;SDS011;3579;48.956;9.154;2023-03-02T00:49:54;2.90;;;2.60;;
7076;SDS011;3579;48.956;9.154;2023-03-02T00:52:20;3.00;;;2.53;;
7076;SDS011;3579;48.956;9.154;2023-03-02T00:54:47;3.07;;;2.67;;
7076;SDS011;3579;48.956;9.154;2023-03-02T00:57:13;3.00;;;2.57;;
7076;SDS011;3579;48.956;9.154;2023-03-02T00:59:39;2.93;;;2.60;;
7076;SDS011;3579;48.956;9.154;2023-03-02T01:02:05;3.47;;;2.43;;
7076;SDS011;3579;48.956;9.154;2023-03-02T01:04:35;3.90;;;2.97;;
7076;SDS011;3579;48.956;9.154;2023-03-02T01:07:04;3.00;;;2.40;;
7076;SDS011;3579;48.956;9.154;2023-03-02T01:09:39;3.63;;;2.70;;
7076;SDS011;3579;48.956;9.154;2023-03-02T01:12:07;3.43;;;2.73;;
7076;SDS011;3579;48.956;9.154;2023-03-02T01:14:36;2.60;;;2.30;;
7076;SDS011;3579;48.956;9.154;2023-03-02T01:17:04;2.63;;;2.37;;
7076;SDS011;3579;48.956;9.154;2023-03-02T01:19:31;2.90;;;2.60;;
7076;SDS011;3579;48.956;9.154;2023-03-02T01:21:58;3.10;;;2.80;;
7076;SDS011;3579;48.956;9.154;2023-03-02T01:24:24;3.43;;;2.90;;
7076;SDS011;3579;48.956;9.154;2023-03-02T01:26:50;3.67;;;3.00;;
7076;SDS011;3579;48.956;9.154;2023-03-02T01:29:16;3.23;;;2.90;;
7076;SDS011;3579;48.956;9.154;2023-03-02T01:31:43;3.63;;;2.83;;
7076;SDS011;3579;48.956;9.154;2023-03-02T01:34:09;2.60;;;2.40;;
7076;SDS011;3579;48.956;9.154;2023-03-02T01:36:35;2.77;;;2.43;;
7076;SDS011;3579;48.956;9.154;2023-03-02T01:39:01;2.73;;;2.43;;
7076;SDS011;3579;48.956;9.154;2023-03-02T01:41:27;2.80;;;2.60;;
7076;SDS011;3579;48.956;9.154;2023-03-02T01:43:53;2.80;;;2.60;;
7076;SDS011;3579;48.956;9.154;2023-03-02T01:46:26;2.20;;;2.00;;
7076;SDS011;3579;48.956;9.154;2023-03-02T01:49:00;2.87;;;2.50;;
7076;SDS011;3579;48.956;9.154;2023-03-02T01:51:33;2.50;;;2.30;;
7076;SDS011;3579;48.956;9.154;2023-03-02T01:54:03;2.67;;;2.40;;
7076;SDS011;3579;48.956;9.154;2023-03-02T01:56:35;3.03;;;2.60;;
7076;SDS011;3579;48.956;9.154;2023-03-02T01:59:08;2.80;;;2.27;;
7076;SDS011;3579;48.956;9.154;2023-03-02T02:01:39;2.63;;;2.30;;
7076;SDS011;3579;48.956;9.154;2023-03-02T02:04:07;3.13;;;2.47;;
7076;SDS011;3579;48.956;9.154;2023-03-02T02:06:37;3.13;;;2.60;;
7076;SDS011;3579;48.956;9.154;2023-03-02T02:09:06;2.63;;;2.43;;
7076;SDS011;3579;48.956;9.154;2023-03-02T02:11:36;2.80;;;2.50;;
7076;SDS011;3579;48.956;9.154;2023-03-02T02:14:02;2.80;;;2.60;;
7076;SDS011;3579;48.956;9.154;2023-03-02T02:16:29;2.40;;;2.20;;
7076;SDS011;3579;48.956;9.154;2023-03-02T02:18:57;3.00;;;2.60;;
7076;SDS011;3579;48.956;9.154;2023-03-02T02:21:24;2.33;;;2.03;;
7076;SDS011;3579;48.956;9.154;2023-03-02T02:26:45;2.87;;;2.43;;
7076;SDS011;3579;48.956;9.154;2023-03-02T02:29:18;3.03;;;2.47;;
7076;SDS011;3579;48.956;9.154;2023-03-02T02:34:23;2.63;;;2.30;;
7076;SDS011;3579;48.956;9.154;2023-03-02T02:37:00;2.57;;;2.17;;
7076;SDS011;3579;48.956;9.154;2023-03-02T02:39:54;2.50;;;2.30;;
7076;SDS011;3579;48.956;9.154;2023-03-02T02:44:58;2.60;;;2.13;;
7076;SDS011;3579;48.956;9.154;2023-03-02T02:47:26;2.20;;;2.00;;
7076;SDS011;3579;48.956;9.154;2023-03-02T02:49:52;2.63;;;2.30;;
7076;SDS011;3579;48.956;9.154;2023-03-02T02:52:21;2.30;;;2.07;;
7076;SDS011;3579;48.956;9.154;2023-03-02T02:54:50;3.43;;;2.37;;
7076;SDS011;3579;48.956;9.154;2023-03-02T02:57:18;2.83;;;2.23;;
7076;SDS011;3579;48.956;9.154;2023-03-02T02:59:55;2.37;;;2.17;;
7076;SDS011;3579;48.956;9.154;2023-03-02T03:02:24;2.37;;;2.00;;
7076;SDS011;3579;48.956;9.154;2023-03-02T03:04:52;2.07;;;1.87;;
7076;SDS011;3579;48.956;9.154;2023-03-02T03:07:27;2.47;;;2.27;;
7076;SDS011;3579;48.956;9.154;2023-03-02T03:09:56;2.57;;;2.30;;
7076;SDS011;3579;48.956;9.154;2023-03-02T03:12:35;2.73;;;2.20;;
7076;SDS011;3579;48.956;9.154;2023-03-02T03:15:03;2.60;;;2.20;;
7076;SDS011;3579;48.956;9.154;2023-03-02T03:17:29;2.37;;;2.10;;
7076;SDS011;3579;48.956;9.154;2023-03-02T03:19:55;2.63;;;2.33;;
7076;SDS011;3579;48.956;9.154;2023-03-02T03:22:31;2.50;;;2.20;;
7076;SDS011;3579;48.956;9.154;2023-03-02T03:24:59;2.53;;;2.30;;
7076;SDS011;3579;48.956;9.154;2023-03-02T03:27:25;2.20;;;2.00;;
7076;SDS011;3579;48.956;9.154;2023-03-02T03:29:51;2.53;;;2.30;;
7076;SDS011;3579;48.956;9.154;2023-03-02T03:32:18;2.70;;;2.40;;
7076;SDS011;3579;48.956;9.154;2023-03-02T03:34:45;2.63;;;2.20;;
7076;SDS011;3579;48.956;9.154;2023-03-02T03:37:13;2.30;;;2.00;;
7076;SDS011;3579;48.956;9.154;2023-03-02T03:39:41;2.50;;;2.30;;
7076;SDS011;3579;48.956;9.154;2023-03-02T03:42:08;2.30;;;2.10;;
7076;SDS011;3579;48.956;9.154;2023-03-02T03:44:34;2.70;;;2.33;;
7076;SDS011;3579;48.956;9.154;2023-03-02T03:47:00;2.57;;;2.20;;
7076;SDS011;3579;48.956;9.154;2023-03-02T03:49:27;2.47;;;2.27;;
7076;SDS011;3579;48.956;9.154;2023-03-02T03:51:53;2.77;;;2.47;;
7076;SDS011;3579;48.956;9.154;2023-03-02T03:54:19;3.33;;;2.27;;
7076;SDS011;3579;48.956;9.154;2023-03-02T03:56:46;2.70;;;2.10;;
7076;SDS011;3579;48.956;9.154;2023-03-02T03:59:14;2.50;;;2.30;;
7076;SDS011;3579;48.956;9.154;2023-03-02T04:01:48;2.40;;;2.20;;
7076;SDS011;3579;48.956;9.154;2023-03-02T04:04:20;2.43;;;2.10;;
7076;SDS011;3579;48.956;9.154;2023-03-02T04:06:48;2.30;;;2.10;;
7076;SDS011;3579;48.956;9.154;2023-03-02T04:09:15;2.60;;;2.40;;
7076;SDS011;3579;48.956;9.154;2023-03-02T04:11:44;2.33;;;2.10;;
7076;SDS011;3579;48.956;9.154;2023-03-02T04:14:13;2.60;;;2.40;;
7076;SDS011;3579;48.956;9.154;2023-03-02T04:16:39;2.50;;;2.30;;
7076;SDS011;3579;48.956;9.154;2023-03-02T04:19:06;3.10;;;2.50;;
7076;SDS011;3579;48.956;9.154;2023-03-02T04:21:37;2.70;;;2.43;;
7076;SDS011;3579;48.956;9.154;2023-03-02T04:24:05;2.87;;;2.40;;
7076;SDS011;3579;48.956;9.154;2023-03-02T04:26:33;2.40;;;2.07;;
7076;SDS011;3579;48.956;9.154;2023-03-02T04:28:59;2.50;;;2.30;;
7076;SDS011;3579;48.956;9.154;2023-03-02T04:31:27;2.33;;;2.07;;
7076;SDS011;3579;48.956;9.154;2023-03-02T04:33:53;2.83;;;2.13;;
7076;SDS011;3579;48.956;9.154;2023-03-02T04:36:19;2.30;;;2.10;;
7076;SDS011;3579;48.956;9.154;2023-03-02T04:38:45;2.57;;;2.30;;
7076;SDS011;3579;48.956;9.154;2023-03-02T04:41:12;2.60;;;2.30;;
7076;SDS011;3579;48.956;9.154;2023-03-02T04:43:38;2.47;;;2.10;;
7076;SDS011;3579;48.956;9.154;2023-03-02T04:46:04;2.70;;;2.10;;
7076;SDS011;3579;48.956;9.154;2023-03-02T04:48:30;2.90;;;2.40;;
7076;SDS011;3579;48.956;9.154;2023-03-02T04:50:56;2.17;;;1.97;;
7076;SDS011;3579;48.956;9.154;2023-03-02T04:53:22;2.83;;;2.53;;
7076;SDS011;3579;48.956;9.154;2023-03-02T04:55:48;2.40;;;2.10;;
7076;SDS011;3579;48.956;9.154;2023-03-02T04:58:14;2.47;;;2.13;;
7076;SDS011;3579;48.956;9.154;2023-03-02T05:00:40;2.70;;;2.33;;
7076;SDS011;3579;48.956;9.154;2023-03-02T05:03:06;2.60;;;2.00;;
7076;SDS011;3579;48.956;9.154;2023-03-02T05:05:32;2.73;;;2.27;;
7076;SDS011;3579;48.956;9.154;2023-03-02T05:07:58;2.40;;;2.20;;
7076;SDS011;3579;48.956;9.154;2023-03-02T05:10:25;2.60;;;2.27;;
7076;SDS011;3579;48.956;9.154;2023-03-02T05:12:52;3.13;;;2.37;;
7076;SDS011;3579;48.956;9.154;2023-03-02T05:15:26;2.30;;;2.10;;
7076;SDS011;3579;48.956;9.154;2023-03-02T05:17:54;2.60;;;2.40;;
7076;SDS011;3579;48.956;9.154;2023-03-02T05:20:21;2.43;;;2.23;;
7076;SDS011;3579;48.956;9.154;2023-03-02T05:22:59;2.70;;;2.27;;
7076;SDS011;3579;48.956;9.154;2023-03-02T05:25:27;2.40;;;2.20;;
7076;SDS011;3579;48.956;9.154;2023-03-02T05:27:55;2.50;;;2.27;;
7076;SDS011;3579;48.956;9.154;2023-03-02T05:30:21;2.93;;;2.20;;
7076;SDS011;3579;48.956;9.154;2023-03-02T05:32:49;2.60;;;2.13;;
7076;SDS011;3579;48.956;9.154;2023-03-02T05:35:17;2.83;;;2.33;;
7076;SDS011;3579;48.956;9.154;2023-03-02T05:37:43;2.30;;;2.10;;
7076;SDS011;3579;48.956;9.154;2023-03-02T05:40:11;2.90;;;2.40;;
7076;SDS011;3579;48.956;9.154;2023-03-02T05:42:39;2.90;;;2.20;;
7076;SDS011;3579;48.956;9.154;2023-03-02T05:45:06;2.27;;;2.07;;
7076;SDS011;3579;48.956;9.154;2023-03-02T05:47:37;2.80;;;2.33;;
7076;SDS011;3579;48.956;9.154;2023-03-02T05:50:03;2.40;;;2.20;;
7076;SDS011;3579;48.956;9.154;2023-03-02T05:52:29;2.30;;;2.10;;
7076;SDS011;3579;48.956;9.154;2023-03-02T05:54:55;2.27;;;2.07;;
7076;SDS011;3579;48.956;9.154;2023-03-02T05:57:21;2.30;;;2.10;;
7076;SDS011;3579;48.956;9.154;2023-03-02T05:59:48;2.13;;;1.90;;
7076;SDS011;3579;48.956;9.154;2023-03-02T06:02:15;2.30;;;2.10;;
7076;SDS011;3579;48.956;9.154;2023-03-02T06:04:41;2.37;;;1.90;;
7076;SDS011;3579;48.956;9.154;2023-03-02T06:07:09;2.53;;;2.33;;
7076;SDS011;3579;48.956;9.154;2023-03-02T06:09:36;2.40;;;2.00;;
7076;SDS011;3579;48.956;9.154;2023-03-02T06:12:03;3.17;;;2.30;;
7076;SDS011;3579;48.956;9.154;2023-03-02T06:14:29;2.90;;;2.30;;
7076;SDS011;3579;48.956;9.154;2023-03-02T06:16:56;2.77;;;2.33;;
7076;SDS011;3579;48.956;9.154;2023-03-02T06:19:22;2.93;;;2.57;;
7076;SDS011;3579;48.956;9.154;2023-03-02T06:21:48;2.30;;;2.10;;
7076;SDS011;3579;48.956;9.154;2023-03-02T06:24:14;2.33;;;2.13;;
7076;SDS011;3579;48.956;9.154;2023-03-02T06:26:40;2.80;;;2.37;;
7076;SDS011;3579;48.956;9.154;2023-03-02T06:29:06;2.90;;;2.60;;
7076;SDS011;3579;48.956;9.154;2023-03-02T06:31:32;2.80;;;2.40;;
7076;SDS011;3579;48.956;9.154;2023-03-02T06:33:59;2.87;;;2.23;;
7076;SDS011;3579;48.956;9.154;2023-03-02T06:36:25;2.50;;;2.17;;
7076;SDS011;3579;48.956;9.154;2023-03-02T06:38:52;2.93;;;2.27;;
7076;SDS011;3579;48.956;9.154;2023-03-02T06:41:18;2.83;;;2.47;;
7076;SDS011;3579;48.956;9.154;2023-03-02T06:43:45;2.40;;;2.10;;
7076;SDS011;3579;48.956;9.154;2023-03-02T06:46:11;2.87;;;2.43;;
7076;SDS011;3579;48.956;9.154;2023-03-02T06:48:37;3.27;;;2.57;;
7076;SDS011;3579;48.956;9.154;2023-03-02T06:51:03;2.73;;;2.40;;
7076;SDS011;3579;48.956;9.154;2023-03-02T06:53:29;3.10;;;2.40;;
7076;SDS011;3579;48.956;9.154;2023-03-02T06:55:55;2.97;;;2.40;;
7076;SDS011;3579;48.956;9.154;2023-03-02T06:58:21;2.63;;;2.30;;
7076;SDS011;3579;48.956;9.154;2023-03-02T07:00:47;2.40;;;2.20;;
7076;SDS011;3579;48.956;9.154;2023-03-02T07:03:13;2.90;;;2.43;;
7076;SDS011;3579;48.956;9.154;2023-03-02T07:05:39;2.90;;;2.53;;
7076;SDS011;3579;48.956;9.154;2023-03-02T07:08:05;2.67;;;2.40;;
7076;SDS011;3579;48.956;9.154;2023-03-02T07:10:49;3.10;;;2.40;;
7076;SDS011;3579;48.956;9.154;2023-03-02T07:13:33;3.17;;;2.60;;
7076;SDS011;3579;48.956;9.154;2023-03-02T07:16:17;2.87;;;2.53;;
7076;SDS011;3579;48.956;9.154;2023-03-02T07:19:02;4.10;;;2.30;;
7076;SDS011;3579;48.956;9.154;2023-03-02T07:21:46;2.70;;;2.47;;
7076;SDS011;3579;48.956;9.154;2023-03-02T07:24:12;2.70;;;2.40;;
7076;SDS011;3579;48.956;9.154;2023-03-02T07:26:38;2.67;;;2.40;;
7076;SDS011;3579;48.956;9.154;2023-03-02T07:29:04;2.50;;;2.30;;
7076;SDS011;3579;48.956;9.154;2023-03-02T07:31:30;3.03;;;2.60;;
7076;SDS011;3579;48.956;9.154;2023-03-02T07:33:56;3.13;;;2.30;;
7076;SDS011;3579;48.956;9.154;2023-03-02T07:36:22;3.23;;;2.60;;
7076;SDS011;3579;48.956;9.154;2023-03-02T07:38:48;2.77;;;2.30;;
7076;SDS011;3579;48.956;9.154;2023-03-02T07:41:14;2.83;;;2.53;;
7076;SDS011;3579;48.956;9.154;2023-03-02T07:43:41;3.63;;;2.50;;
7076;SDS011;3579;48.956;9.154;2023-03-02T07:46:07;2.90;;;2.60;;
7076;SDS011;3579;48.956;9.154;2023-03-02T07:48:33;2.63;;;2.30;;
7076;SDS011;3579;48.956;9.154;2023-03-02T07:51:00;2.67;;;2.47;;
7076;SDS011;3579;48.956;9.154;2023-03-02T07:53:27;3.00;;;2.30;;
7076;SDS011;3579;48.956;9.154;2023-03-02T07:55:54;2.60;;;2.40;;
7076;SDS011;3579;48.956;9.154;2023-03-02T07:58:20;3.03;;;2.43;;
7076;SDS011;3579;48.956;9.154;2023-03-02T08:00:47;2.43;;;2.23;;
7076;SDS011;3579;48.956;9.154;2023-03-02T08:03:13;2.50;;;2.30;;
7076;SDS011;3579;48.956;9.154;2023-03-02T08:05:39;2.80;;;2.60;;
7076;SDS011;3579;48.956;9.154;2023-03-02T08:08:05;3.33;;;2.40;;
7076;SDS011;3579;48.956;9.154;2023-03-02T08:10:35;2.77;;;2.40;;
7076;SDS011;3579;48.956;9.154;2023-03-02T08:13:02;3.13;;;2.70;;
7076;SDS011;3579;48.956;9.154;2023-03-02T08:15:29;3.00;;;2.70;;
7076;SDS011;3579;48.956;9.154;2023-03-02T08:17:55;2.53;;;2.30;;
7076;SDS011;3579;48.956;9.154;2023-03-02T08:20:21;2.93;;;2.60;;
7076;SDS011;3579;48.956;9.154;2023-03-02T08:22:47;3.43;;;2.70;;
7076;SDS011;3579;48.956;9.154;2023-03-02T08:25:13;4.90;;;3.00;;
7076;SDS011;3579;48.956;9.154;2023-03-02T08:27:39;8.57;;;6.27;;
7076;SDS011;3579;48.956;9.154;2023-03-02T08:30:06;11.07;;;8.63;;
7076;SDS011;3579;48.956;9.154;2023-03-02T08:32:33;13.17;;;9.87;;
7076;SDS011;3579;48.956;9.154;2023-03-02T08:34:59;13.00;;;10.33;;
7076;SDS011;3579;48.956;9.154;2023-03-02T08:37:25;14.07;;;11.70;;
7076;SDS011;3579;48.956;9.154;2023-03-02T08:39:51;13.63;;;11.23;;
7076;SDS011;3579;48.956;9.154;2023-03-02T08:42:18;12.73;;;11.10;;
7076;SDS011;3579;48.956;9.154;2023-03-02T08:44:44;12.50;;;10.93;;
7076;SDS011;3579;48.956;9.154;2023-03-02T08:47:10;13.33;;;11.20;;
7076;SDS011;3579;48.956;9.154;2023-03-02T08:49:36;13.30;;;11.03;;
7076;SDS011;3579;48.956;9.154;2023-03-02T08:52:02;13.47;;;12.00;;
7076;SDS011;3579;48.956;9.154;2023-03-02T08:54:30;14.07;;;11.47;;
7076;SDS011;3579;48.956;9.154;2023-03-02T08:57:08;13.40;;;10.30;;
7076;SDS011;3579;48.956;9.154;2023-03-02T08:59:36;13.77;;;9.70;;
7076;SDS011;3579;48.956;9.154;2023-03-02T09:02:02;12.07;;;9.00;;
7076;SDS011;3579;48.956;9.154;2023-03-02T09:04:28;10.10;;;8.20;;
7076;SDS011;3579;48.956;9.154;2023-03-02T09:06:54;11.10;;;8.13;;
7076;SDS011;3579;48.956;9.154;2023-03-02T09:09:20;9.47;;;7.27;;
7076;SDS011;3579;48.956;9.154;2023-03-02T09:11:46;9.67;;;7.23;;
7076;SDS011;3579;48.956;9.154;2023-03-02T09:14:13;11.63;;;7.40;;
7076;SDS011;3579;48.956;9.154;2023-03-02T09:16:39;8.90;;;7.10;;
7076;SDS011;3579;48.956;9.154;2023-03-02T09:19:05;10.10;;;6.73;;
7076;SDS011;3579;48.956;9.154;2023-03-02T09:21:31;11.17;;;7.07;;
7076;SDS011;3579;48.956;9.154;2023-03-02T09:23:57;10.50;;;6.57;;
7076;SDS011;3579;48.956;9.154;2023-03-02T09:26:26;10.53;;;6.10;;
7076;SDS011;3579;48.956;9.154;2023-03-02T09:28:53;12.70;;;6.60;;
7076;SDS011;3579;48.956;9.154;2023-03-02T09:31:19;10.43;;;6.03;;
7076;SDS011;3579;48.956;9.154;2023-03-02T09:33:45;9.10;;;5.63;;
7076;SDS011;3579;48.956;9.154;2023-03-02T09:36:12;10.83;;;6.20;;
7076;SDS011;3579;48.956;9.154;2023-03-02T09:38:43;8.07;;;5.93;;
7076;SDS011;3579;48.956;9.154;2023-03-02T09:46:45;7.93;;;5.43;;
7076;SDS011;3579;48.956;9.154;2023-03-02T09:49:26;7.63;;;5.10;;
7076;SDS011;3579;48.956;9.154;2023-03-02T09:52:35;9.07;;;5.57;;
7076;SDS011;3579;48.956;9.154;2023-03-02T09:55:26;7.50;;;5.90;;
7076;SDS011;3579;48.956;9.154;2023-03-02T09:57:53;9.00;;;5.87;;
7076;SDS011;3579;48.956;9.154;2023-03-02T10:00:27;9.93;;;5.37;;
7076;SDS011;3579;48.956;9.154;2023-03-02T10:02:57;7.17;;;5.13;;
7076;SDS011;3579;48.956;9.154;2023-03-02T10:05:27;7.40;;;5.13;;
7076;SDS011;3579;48.956;9.154;2023-03-02T10:08:02;8.63;;;5.90;;
7076;SDS011;3579;48.956;9.154;2023-03-02T10:13:25;8.20;;;5.37;;
7076;SDS011;3579;48.956;9.154;2023-03-02T10:22:09;9.33;;;5.53;;
7076;SDS011;3579;48.956;9.154;2023-03-02T10:27:42;6.50;;;5.30;;
7076;SDS011;3579;48.956;9.154;2023-03-02T10:32:52;6.57;;;4.87;;
7076;SDS011;3579;48.956;9.154;2023-03-02T10:35:24;8.00;;;5.10;;
7076;SDS011;3579;48.956;9.154;2023-03-02T10:38:03;10.63;;;4.97;;
7076;SDS011;3579;48.956;9.154;2023-03-02T10:40:47;7.33;;;4.73;;
7076;SDS011;3579;48.956;9.154;2023-03-02T10:43:19;8.00;;;4.90;;
7076;SDS011;3579;48.956;9.154;2023-03-02T10:48:26;8.43;;;5.27;;
7076;SDS011;3579;48.956;9.154;2023-03-02T10:50:53;9.47;;;5.10;;
7076;SDS011;3579;48.956;9.154;2023-03-02T10:53:22;7.30;;;5.30;;
7076;SDS011;3579;48.956;9.154;2023-03-02T10:55:50;6.70;;;5.00;;
7076;SDS011;3579;48.956;9.154;2023-03-02T10:58:22;10.77;;;5.10;;
7076;SDS011;3579;48.956;9.154;2023-03-02T11:01:01;6.37;;;4.77;;
7076;SDS011;3579;48.956;9.154;2023-03-02T11:03:37;12.97;;;4.93;;
7076;SDS011;3579;48.956;9.154;2023-03-02T11:06:37;8.87;;;5.00;;
7076;SDS011;3579;48.956;9.154;2023-03-02T11:09:02;14.50;;;5.27;;
7076;SDS011;3579;48.956;9.154;2023-03-02T11:11:30;5.43;;;4.90;;
7076;SDS011;3579;48.956;9.154;2023-03-02T11:14:06;6.53;;;4.57;;
7076;SDS011;3579;48.956;9.154;2023-03-02T11:16:42;11.70;;;4.53;;
7076;SDS011;3579;48.956;9.154;2023-03-02T11:19:16;7.00;;;4.40;;
7076;SDS011;3579;48.956;9.154;2023-03-02T11:22:12;13.63;;;5.00;;
7076;SDS011;3579;48.956;9.154;2023-03-02T11:24:48;7.00;;;4.63;;
7076;SDS011;3579;48.956;9.154;2023-03-02T11:27:20;9.50;;;4.73;;
7076;SDS011;3579;48.956;9.154;2023-03-02T11:30:03;7.90;;;4.60;;
7076;SDS011;3579;48.956;9.154;2023-03-02T11:32:43;5.77;;;4.53;;
7076;SDS011;3579;48.956;9.154;2023-03-02T11:35:33;9.13;;;4.80;;
7076;SDS011;3579;48.956;9.154;2023-03-02T11:38:18;5.97;;;4.10;;
7076;SDS011;3579;48.956;9.154;2023-03-02T11:43:23;6.90;;;3.90;;
7076;SDS011;3579;48.956;9.154;2023-03-02T11:45:55;6.07;;;4.20;;
7076;SDS011;3579;48.956;9.154;2023-03-02T11:48:30;7.03;;;4.17;;
7076;SDS011;3579;48.956;9.154;2023-03-02T11:53:30;7.70;;;4.30;;
7076;SDS011;3579;48.956;9.154;2023-03-02T11:56:03;6.03;;;3.87;;
7076;SDS011;3579;48.956;9.154;2023-03-02T11:58:30;7.40;;;4.30;;
7076;SDS011;3579;48.956;9.154;2023-03-02T12:00:57;6.47;;;3.70;;
7076;SDS011;3579;48.956;9.154;2023-03-02T12:10:58;5.93;;;3.50;;
7076;SDS011;3579;48.956;9.154;2023-03-02T12:13:37;4.80;;;3.77;;
7076;SDS011;3579;48.956;9.154;2023-03-02T12:16:33;5.77;;;3.63;;
7076;SDS011;3579;48.956;9.154;2023-03-02T12:19:10;5.57;;;3.70;;
7076;SDS011;3579;48.956;9.154;2023-03-02T12:22:04;8.83;;;3.83;;
7076;SDS011;3579;48.956;9.154;2023-03-02T12:24:34;9.40;;;3.87;;
7076;SDS011;3579;48.956;9.154;2023-03-02T12:27:06;5.63;;;3.50;;
7076;SDS011;3579;48.956;9.154;2023-03-02T12:29:47;9.60;;;3.57;;
7076;SDS011;3579;48.956;9.154;2023-03-02T12:34:44;5.30;;;3.60;;
7076;SDS011;3579;48.956;9.154;2023-03-02T12:38:03;5.90;;;3.97;;
7076;SDS011;3579;48.956;9.154;2023-03-02T12:40:24;4.80;;;3.53;;
7076;SDS011;3579;48.956;9.154;2023-03-02T12:43:27;6.30;;;3.70;;
7076;SDS011;3579;48.956;9.154;2023-03-02T12:52:01;6.60;;;3.63;;
7076;SDS011;3579;48.956;9.154;2023-03-02T12:54:42;7.70;;;3.50;;
7076;SDS011;3579;48.956;9.154;2023-03-02T12:57:15;7.33;;;3.83;;
7076;SDS011;3579;48.956;9.154;2023-03-02T12:59:49;5.93;;;3.23;;
7076;SDS011;3579;48.956;9.154;2023-03-02T13:02:23;6.33;;;3.63;;
7076;SDS011;3579;48.956;9.154;2023-03-02T13:04:51;11.93;;;6.90;;
7076;SDS011;3579;48.956;9.154;2023-03-02T13:07:26;14.43;;;11.60;;
7076;SDS011;3579;48.956;9.154;2023-03-02T13:10:21;19.43;;;12.43;;
7076;SDS011;3579;48.956;9.154;2023-03-02T13:13:00;17.87;;;13.23;;
7076;SDS011;3579;48.956;9.154;2023-03-02T13:15:45;17.77;;;13.40;;
7076;SDS011;3579;48.956;9.154;2023-03-02T13:18:12;18.93;;;13.63;;
7076;SDS011;3579;48.956;9.154;2023-03-02T13:20:41;17.53;;;13.97;;
7076;SDS011;3579;48.956;9.154;2023-03-02T13:25:32;16.53;;;11.53;;
7076;SDS011;3579;48.956;9.154;2023-03-02T13:27:59;14.83;;;10.97;;
7076;SDS011;3579;48.956;9.154;2023-03-02T13:30:32;12.70;;;9.07;;
7076;SDS011;3579;48.956;9.154;2023-03-02T13:33:04;16.47;;;8.60;;
7076;SDS011;3579;48.956;9.154;2023-03-02T13:35:44;12.83;;;7.63;;
7076;SDS011;3579;48.956;9.154;2023-03-02T13:38:16;12.30;;;7.73;;
7076;SDS011;3579;48.956;9.154;2023-03-02T13:40:44;9.83;;;7.67;;
7076;SDS011;3579;48.956;9.154;2023-03-02T13:43:23;10.40;;;6.93;;
7076;SDS011;3579;48.956;9.154;2023-03-02T13:48:38;11.60;;;6.60;;
7076;SDS011;3579;48.956;9.154;2023-03-02T13:51:22;11.43;;;6.10;;
7076;SDS011;3579;48.956;9.154;2023-03-02T13:53:54;10.10;;;6.30;;
7076;SDS011;3579;48.956;9.154;2023-03-02T13:56:23;9.83;;;5.93;;
7076;SDS011;3579;48.956;9.154;2023-03-02T13:58:56;9.73;;;6.20;;
7076;SDS011;3579;48.956;9.154;2023-03-02T14:01:22;8.23;;;5.97;;
7076;SDS011;3579;48.956;9.154;2023-03-02T14:03:48;9.00;;;5.77;;
7076;SDS011;3579;48.956;9.154;2023-03-02T14:06:15;8.37;;;5.50;;
7076;SDS011;3579;48.956;9.154;2023-03-02T14:08:43;8.77;;;5.63;;
7076;SDS011;3579;48.956;9.154;2023-03-02T14:11:13;9.20;;;5.80;;
7076;SDS011;3579;48.956;9.154;2023-03-02T14:13:41;5.63;;;5.03;;
7076;SDS011;3579;48.956;9.154;2023-03-02T14:16:11;11.97;;;5.70;;
7076;SDS011;3579;48.956;9.154;2023-03-02T14:21:05;8.43;;;5.27;;
7076;SDS011;3579;48.956;9.154;2023-03-02T14:23:41;11.33;;;5.33;;
7076;SDS011;3579;48.956;9.154;2023-03-02T14:28:43;7.87;;;5.37;;
7076;SDS011;3579;48.956;9.154;2023-03-02T14:31:09;9.47;;;5.03;;
7076;SDS011;3579;48.956;9.154;2023-03-02T14:33:35;11.70;;;5.00;;
7076;SDS011;3579;48.956;9.154;2023-03-02T14:36:02;10.30;;;4.87;;
7076;SDS011;3579;48.956;9.154;2023-03-02T14:38:30;9.13;;;5.03;;
7076;SDS011;3579;48.956;9.154;2023-03-02T14:40:57;12.87;;;9.93;;
7076;SDS011;3579;48.956;9.154;2023-03-02T14:43:24;15.53;;;9.60;;
7076;SDS011;3579;48.956;9.154;2023-03-02T14:45:50;12.17;;;6.97;;
7076;SDS011;3579;48.956;9.154;2023-03-02T14:48:17;11.60;;;6.50;;
7076;SDS011;3579;48.956;9.154;2023-03-02T14:50:44;11.67;;;5.90;;
7076;SDS011;3579;48.956;9.154;2023-03-02T14:53:16;8.97;;;5.97;;
7076;SDS011;3579;48.956;9.154;2023-03-02T14:55:52;8.50;;;5.70;;
7076;SDS011;3579;48.956;9.154;2023-03-02T14:58:19;13.87;;;6.03;;
7076;SDS011;3579;48.956;9.154;2023-03-02T15:00:51;9.87;;;5.23;;
7076;SDS011;3579;48.956;9.154;2023-03-02T15:03:18;8.67;;;5.23;;
7076;SDS011;3579;48.956;9.154;2023-03-02T15:05:46;10.57;;;5.40;;
7076;SDS011;3579;48.956;9.154;2023-03-02T15:08:14;13.33;;;5.40;;
7076;SDS011;3579;48.956;9.154;2023-03-02T15:10:41;8.43;;;5.00;;
7076;SDS011;3579;48.956;9.154;2023-03-02T15:13:08;9.63;;;5.10;;
7076;SDS011;3579;48.956;9.154;2023-03-02T15:15:35;10.57;;;5.27;;
7076;SDS011;3579;48.956;9.154;2023-03-02T15:18:02;7.57;;;5.07;;
7076;SDS011;3579;48.956;9.154;2023-03-02T15:20:29;8.17;;;5.20;;
7076;SDS011;3579;48.956;9.154;2023-03-02T15:22:55;8.90;;;5.03;;
7076;SDS011;3579;48.956;9.154;2023-03-02T15:25:21;9.87;;;5.20;;
7076;SDS011;3579;48.956;9.154;2023-03-02T15:27:51;9.53;;;4.93;;
7076;SDS011;3579;48.956;9.154;2023-03-02T15:30:18;11.00;;;4.90;;
7076;SDS011;3579;48.956;9.154;2023-03-02T15:32:45;8.43;;;5.23;;
7076;SDS011;3579;48.956;9.154;2023-03-02T15:35:11;8.07;;;4.63;;
7076;SDS011;3579;48.956;9.154;2023-03-02T15:37:37;6.57;;;4.50;;
7076;SDS011;3579;48.956;9.154;2023-03-02T15:40:03;10.70;;;5.00;;
7076;SDS011;3579;48.956;9.154;2023-03-02T15:42:30;10.77;;;4.77;;
7076;SDS011;3579;48.956;9.154;2023-03-02T15:44:56;8.50;;;4.63;;
7076;SDS011;3579;48.956;9.154;2023-03-02T15:47:22;10.80;;;4.73;;
7076;SDS011;3579;48.956;9.154;2023-03-02T15:49:48;12.40;;;4.80;;
7076;SDS011;3579;48.956;9.154;2023-03-02T15:52:14;9.40;;;4.53;;
7076;SDS011;3579;48.956;9.154;2023-03-02T15:54:41;11.90;;;4.90;;
7076;SDS011;3579;48.956;9.154;2023-03-02T15:57:07;10.03;;;4.80;;
7076;SDS011;3579;48.956;9.154;2023-03-02T15:59:34;6.17;;;4.60;;
7076;SDS011;3579;48.956;9.154;2023-03-02T16:02:00;6.67;;;4.37;;
7076;SDS011;3579;48.956;9.154;2023-03-02T16:04:27;8.37;;;4.23;;
7076;SDS011;3579;48.956;9.154;2023-03-02T16:06:54;6.57;;;4.03;;
7076;SDS011;3579;48.956;9.154;2023-03-02T16:09:21;8.93;;;4.57;;
7076;SDS011;3579;48.956;9.154;2023-03-02T16:11:49;8.97;;;4.50;;
7076;SDS011;3579;48.956;9.154;2023-03-02T16:14:16;6.23;;;4.23;;
7076;SDS011;3579;48.956;9.154;2023-03-02T16:16:42;9.40;;;4.50;;
7076;SDS011;3579;48.956;9.154;2023-03-02T16:19:10;5.23;;;3.90;;
7076;SDS011;3579;48.956;9.154;2023-03-02T16:21:38;11.67;;;4.23;;
7076;SDS011;3579;48.956;9.154;2023-03-02T16:24:05;8.50;;;4.20;;
7076;SDS011;3579;48.956;9.154;2023-03-02T16:26:32;8.17;;;3.73;;
7076;SDS011;3579;48.956;9.154;2023-03-02T16:29:00;6.30;;;3.73;;